Time;durP1;ratioP1;P1;durP2;ratioP2;P2;SDS_P1;SDS_P2;PMS_P1;PMS_P2;Temp;Humidity;BMP_temperature;BMP_pressure;BME280_temperature;BME280_humidity;BME280_pressure;Samples;Min_cycle;Max_cycle;Signal;HPM_P1;HPM_P2
2024/04/23 00:02:23;;;;;;;7.67;5.13;;;;;;;;;;5339190;26;20016;-83
2024/04/23 00:04:49;;;;;;;10.03;5.63;;;;;;;;;;5375875;26;20000;-88
2024/04/23 00:07:18;;;;;;;13.40;6.40;;;;;;;;;;5369706;26;20032;-81
2024/04/23 00:09:44;;;;;;;9.47;5.83;;;;;;;;;;5369138;26;20000;-82
2024/04/23 00:12:10;;;;;;;9.60;5.77;;;;;;;;;;5378082;26;20010;-84
2024/04/23 00:14:36;;;;;;;10.57;5.73;;;;;;;;;;5345411;26;20238;-82
2024/04/23 00:17:05;;;;;;;9.30;5.50;;;;;;;;;;5337387;26;20527;-85
2024/04/23 00:19:32;;;;;;;8.67;5.47;;;;;;;;;;5338428;26;19996;-83
2024/04/23 00:21:58;;;;;;;10.07;6.23;;;;;;;;;;5366858;26;20294;-79
2024/04/23 00:24:24;;;;;;;11.97;5.80;;;;;;;;;;5365982;26;20456;-82
2024/04/23 00:26:53;;;;;;;11.40;5.93;;;;;;;;;;5341487;26;20277;-82
2024/04/23 00:29:19;;;;;;;12.67;5.70;;;;;;;;;;5367558;26;20004;-86
2024/04/23 00:31:45;;;;;;;11.00;6.00;;;;;;;;;;5378461;26;20246;-83
2024/04/23 00:34:11;;;;;;;9.53;5.43;;;;;;;;;;5382786;26;20321;-85
2024/04/23 00:36:37;;;;;;;11.43;6.10;;;;;;;;;;5379632;26;19996;-82
2024/04/23 00:39:03;;;;;;;11.97;6.07;;;;;;;;;;5381176;26;20008;-82
2024/04/23 00:41:32;;;;;;;11.93;6.30;;;;;;;;;;5382133;26;19996;-85
2024/04/23 00:43:58;;;;;;;9.17;5.50;;;;;;;;;;5373265;26;20007;-85
2024/04/23 00:46:26;;;;;;;11.50;5.97;;;;;;;;;;5381000;26;20250;-85
2024/04/23 00:48:52;;;;;;;9.03;5.20;;;;;;;;;;5382591;26;20004;-84
2024/04/23 00:51:18;;;;;;;11.50;5.70;;;;;;;;;;5350746;26;20420;-83
2024/04/23 00:53:44;;;;;;;11.37;6.23;;;;;;;;;;5376089;26;20012;-82
2024/04/23 00:56:11;;;;;;;9.87;5.47;;;;;;;;;;5376985;26;19992;-82
2024/04/23 00:58:37;;;;;;;9.47;5.17;;;;;;;;;;5412425;26;20005;-84
2024/04/23 01:01:06;;;;;;;9.27;5.47;;;;;;;;;;5347075;26;20169;-84
2024/04/23 01:03:32;;;;;;;11.57;6.17;;;;;;;;;;5347393;26;20000;-81
2024/04/23 01:06:00;;;;;;;11.23;6.40;;;;;;;;;;5376470;26;20713;-81
2024/04/23 01:08:26;;;;;;;10.17;6.20;;;;;;;;;;5385105;26;20008;-86
2024/04/23 01:10:52;;;;;;;9.90;5.77;;;;;;;;;;5385912;26;20074;-82
2024/04/23 01:13:20;;;;;;;10.67;6.10;;;;;;;;;;5413598;26;19992;-80
2024/04/23 01:15:46;;;;;;;14.67;6.23;;;;;;;;;;5385041;26;20012;-82
2024/04/23 01:18:13;;;;;;;10.73;6.20;;;;;;;;;;5386293;26;20000;-82
2024/04/23 01:20:39;;;;;;;9.07;5.20;;;;;;;;;;5385778;26;20000;-79
2024/04/23 01:23:15;;;;;;;9.90;5.97;;;;;;;;;;5385292;26;20007;-81
2024/04/23 01:25:44;;;;;;;7.50;4.83;;;;;;;;;;5385449;26;20011;-83
2024/04/23 01:28:11;;;;;;;9.97;5.93;;;;;;;;;;5387022;26;20078;-82
2024/04/23 01:30:37;;;;;;;9.97;6.10;;;;;;;;;;5357869;26;20334;-81
2024/04/23 01:33:04;;;;;;;12.43;6.13;;;;;;;;;;5385876;26;20041;-82
2024/04/23 01:35:30;;;;;;;9.67;5.80;;;;;;;;;;5387166;26;20008;-87
2024/04/23 01:37:57;;;;;;;12.63;6.33;;;;;;;;;;5347266;26;20004;-83
2024/04/23 01:40:23;;;;;;;10.67;6.37;;;;;;;;;;5384782;26;19997;-80
2024/04/23 01:42:50;;;;;;;9.87;5.93;;;;;;;;;;5380855;26;20011;-81
2024/04/23 01:45:16;;;;;;;11.73;6.60;;;;;;;;;;5372586;26;20191;-80
2024/04/23 01:47:46;;;;;;;12.10;6.33;;;;;;;;;;5387549;26;20104;-81
2024/04/23 01:50:12;;;;;;;11.27;7.03;;;;;;;;;;5385164;26;20000;-83
2024/04/23 01:52:39;;;;;;;9.70;5.67;;;;;;;;;;5350057;26;19998;-85
2024/04/23 01:55:05;;;;;;;13.07;6.03;;;;;;;;;;5385636;26;20246;-84
2024/04/23 01:57:33;;;;;;;12.17;6.37;;;;;;;;;;5384032;26;20023;-79
2024/04/23 02:00:04;;;;;;;10.83;6.23;;;;;;;;;;5383706;26;20003;-78
2024/04/23 02:02:31;;;;;;;11.47;6.20;;;;;;;;;;5381725;26;20014;-87
2024/04/23 02:04:57;;;;;;;11.13;6.27;;;;;;;;;;5348847;26;20011;-82
2024/04/23 02:07:24;;;;;;;10.07;6.10;;;;;;;;;;5379627;26;20020;-80
2024/04/23 02:09:50;;;;;;;12.17;6.23;;;;;;;;;;5371216;26;20000;-80
2024/04/23 02:12:16;;;;;;;11.37;6.67;;;;;;;;;;5347582;26;20008;-86
2024/04/23 02:14:42;;;;;;;10.83;6.17;;;;;;;;;;5338940;26;20266;-82
2024/04/23 02:17:13;;;;;;;9.03;6.03;;;;;;;;;;5374690;26;20000;-81
2024/04/23 02:19:39;;;;;;;11.50;6.73;;;;;;;;;;5377414;26;20954;-80
2024/04/23 02:22:05;;;;;;;10.90;6.10;;;;;;;;;;5374806;26;20251;-84
2024/04/23 02:24:31;;;;;;;8.70;5.70;;;;;;;;;;5345975;26;20230;-83
2024/04/23 02:26:57;;;;;;;10.67;6.30;;;;;;;;;;5364077;26;20000;-80
2024/04/23 02:29:23;;;;;;;11.10;5.70;;;;;;;;;;5377729;26;20008;-86
2024/04/23 02:31:49;;;;;;;12.30;7.20;;;;;;;;;;5340504;26;20007;-84
2024/04/23 02:34:15;;;;;;;12.67;6.47;;;;;;;;;;5379185;26;20073;-85
2024/04/23 02:36:41;;;;;;;11.73;7.27;;;;;;;;;;5378091;26;20016;-84
2024/04/23 02:39:07;;;;;;;13.73;7.40;;;;;;;;;;5378437;26;20007;-83
2024/04/23 02:41:36;;;;;;;11.37;7.23;;;;;;;;;;5376628;26;20242;-83
2024/04/23 02:44:06;;;;;;;12.93;7.73;;;;;;;;;;5378460;26;20252;-82
2024/04/23 02:46:32;;;;;;;10.17;6.33;;;;;;;;;;5380995;26;20242;-83
2024/04/23 02:48:58;;;;;;;10.67;6.13;;;;;;;;;;5365213;26;20300;-84
2024/04/23 02:51:24;;;;;;;13.10;7.10;;;;;;;;;;5379189;26;20235;-81
2024/04/23 02:53:50;;;;;;;11.30;6.90;;;;;;;;;;5373380;26;20011;-84
2024/04/23 02:56:16;;;;;;;13.23;6.67;;;;;;;;;;5340178;26;20431;-82
2024/04/23 02:58:44;;;;;;;12.00;7.03;;;;;;;;;;5364742;26;20000;-84
2024/04/23 03:01:10;;;;;;;12.93;7.07;;;;;;;;;;5377063;26;20070;-83
2024/04/23 03:03:37;;;;;;;14.90;7.03;;;;;;;;;;5366998;26;21574;-85
2024/04/23 03:06:03;;;;;;;11.83;6.90;;;;;;;;;;5338064;26;20087;-81
2024/04/23 03:08:28;;;;;;;11.87;7.10;;;;;;;;;;5340529;26;20318;-80
2024/04/23 03:10:54;;;;;;;15.63;7.53;;;;;;;;;;5376765;26;20265;-81
2024/04/23 03:13:20;;;;;;;12.27;7.13;;;;;;;;;;5374266;26;20028;-85
2024/04/23 03:15:46;;;;;;;11.70;6.67;;;;;;;;;;5367026;26;20008;-79
2024/04/23 03:18:12;;;;;;;10.97;6.40;;;;;;;;;;5337003;26;21013;-85
2024/04/23 03:20:41;;;;;;;14.13;7.27;;;;;;;;;;5368013;26;19996;-81
2024/04/23 03:23:07;;;;;;;13.73;7.17;;;;;;;;;;5372657;26;20007;-81
2024/04/23 03:25:33;;;;;;;13.77;7.10;;;;;;;;;;5374197;26;20755;-79
2024/04/23 03:27:59;;;;;;;14.90;7.37;;;;;;;;;;5373960;26;20095;-82
2024/04/23 03:30:25;;;;;;;11.67;6.90;;;;;;;;;;5376143;26;19996;-84
2024/04/23 03:32:53;;;;;;;13.70;6.63;;;;;;;;;;5368950;26;20766;-81
2024/04/23 03:35:19;;;;;;;11.93;7.03;;;;;;;;;;5365263;26;20000;-86
2024/04/23 03:37:47;;;;;;;9.80;6.23;;;;;;;;;;5337773;26;20286;-77
2024/04/23 03:40:13;;;;;;;12.30;7.10;;;;;;;;;;5366064;26;20292;-85
2024/04/23 03:42:39;;;;;;;12.17;6.90;;;;;;;;;;5366024;26;20308;-80
2024/04/23 03:45:05;;;;;;;11.07;7.27;;;;;;;;;;5374135;26;20008;-82
2024/04/23 03:47:31;;;;;;;15.03;7.87;;;;;;;;;;5347477;26;20095;-83
2024/04/23 03:49:57;;;;;;;14.67;7.40;;;;;;;;;;5372986;26;20318;-80
2024/04/23 03:52:26;;;;;;;13.17;7.83;;;;;;;;;;5378171;26;20243;-84
2024/04/23 03:54:52;;;;;;;15.73;7.70;;;;;;;;;;5334305;26;20341;-79
2024/04/23 03:57:18;;;;;;;16.23;8.47;;;;;;;;;;5365597;26;20247;-84
2024/04/23 03:59:44;;;;;;;14.27;7.60;;;;;;;;;;5373905;26;20253;-85
2024/04/23 04:07:39;;;;;;;18.63;10.03;;;;;;;;;;5379656;26;20273;-85
2024/04/23 04:10:05;;;;;;;13.33;7.60;;;;;;;;;;5380279;26;20235;-87
2024/04/23 04:12:31;;;;;;;16.43;8.43;;;;;;;;;;5336752;26;20243;-80
2024/04/23 04:14:57;;;;;;;15.47;7.83;;;;;;;;;;5378266;26;20238;-87
2024/04/23 04:17:23;;;;;;;16.30;8.47;;;;;;;;;;5378552;26;20065;-84
2024/04/23 04:19:49;;;;;;;13.23;7.63;;;;;;;;;;5379546;26;20028;-84
2024/04/23 04:22:15;;;;;;;13.60;7.77;;;;;;;;;;5376816;26;20003;-83
2024/04/23 04:24:41;;;;;;;14.40;8.60;;;;;;;;;;5377933;26;20010;-82
2024/04/23 04:27:09;;;;;;;15.30;8.57;;;;;;;;;;5347864;26;20019;-83
2024/04/23 04:29:35;;;;;;;14.63;8.17;;;;;;;;;;5338066;26;19992;-84
2024/04/23 04:32:01;;;;;;;12.57;7.13;;;;;;;;;;5340461;26;20282;-86
2024/04/23 04:34:27;;;;;;;13.40;8.37;;;;;;;;;;5339356;26;20669;-85
2024/04/23 04:36:55;;;;;;;13.80;8.13;;;;;;;;;;5375094;26;20009;-84
2024/04/23 04:39:23;;;;;;;13.33;7.50;;;;;;;;;;5346847;26;19996;-80
2024/04/23 04:41:49;;;;;;;15.77;8.97;;;;;;;;;;5366296;26;20261;-86
2024/04/23 04:44:15;;;;;;;13.93;7.73;;;;;;;;;;5377432;26;20296;-82
2024/04/23 04:46:41;;;;;;;15.07;8.77;;;;;;;;;;5340115;26;20004;-81
2024/04/23 04:49:07;;;;;;;14.73;8.00;;;;;;;;;;5376373;26;20004;-85
2024/04/23 04:51:33;;;;;;;15.70;8.70;;;;;;;;;;5366070;26;20243;-81
2024/04/23 04:53:59;;;;;;;17.87;9.10;;;;;;;;;;5377371;26;20095;-85
2024/04/23 04:56:27;;;;;;;17.47;8.70;;;;;;;;;;5339512;26;20000;-87
2024/04/23 04:58:53;;;;;;;15.43;9.17;;;;;;;;;;5377485;26;20128;-87
2024/04/23 05:01:21;;;;;;;13.10;8.03;;;;;;;;;;5340350;26;20888;-83
2024/04/23 05:03:47;;;;;;;15.97;8.30;;;;;;;;;;5377248;26;20004;-86
2024/04/23 05:06:13;;;;;;;17.37;8.50;;;;;;;;;;5377348;26;20238;-86
2024/04/23 05:08:42;;;;;;;15.07;8.70;;;;;;;;;;5378211;26;20451;-81
2024/04/23 05:11:08;;;;;;;16.33;8.93;;;;;;;;;;5375973;26;20012;-84
2024/04/23 05:13:34;;;;;;;17.37;9.60;;;;;;;;;;5377772;26;20298;-79
2024/04/23 05:16:02;;;;;;;20.73;11.37;;;;;;;;;;5378247;26;20012;-86
2024/04/23 05:18:28;;;;;;;18.60;10.13;;;;;;;;;;5377919;26;20583;-81
2024/04/23 05:20:54;;;;;;;17.97;9.90;;;;;;;;;;5365861;26;20274;-83
2024/04/23 05:23:20;;;;;;;19.97;10.57;;;;;;;;;;5378683;26;20068;-87
2024/04/23 05:25:46;;;;;;;18.23;9.93;;;;;;;;;;5339188;26;20483;-85
2024/04/23 05:28:12;;;;;;;20.80;10.27;;;;;;;;;;5376437;26;20093;-88
2024/04/23 05:33:22;;;;;;;25.77;11.23;;;;;;;;;;5378425;26;20011;-81
2024/04/23 05:35:48;;;;;;;24.17;12.13;;;;;;;;;;5378241;26;20250;-85
2024/04/23 05:38:14;;;;;;;22.63;11.77;;;;;;;;;;5349028;26;20004;-89
2024/04/23 05:40:40;;;;;;;27.40;13.20;;;;;;;;;;5370468;26;20019;-83
2024/04/23 05:43:06;;;;;;;28.80;13.97;;;;;;;;;;5368578;26;20015;-87
2024/04/23 05:45:32;;;;;;;26.10;13.57;;;;;;;;;;5380533;26;20424;-82
2024/04/23 05:48:20;;;;;;;29.83;14.47;;;;;;;;;;5381195;26;20023;-84
2024/04/23 05:51:04;;;;;;;30.73;13.93;;;;;;;;;;5383576;26;20000;-87
2024/04/23 05:53:49;;;;;;;30.53;13.97;;;;;;;;;;5381582;26;20844;-83
2024/04/23 05:56:15;;;;;;;26.77;13.87;;;;;;;;;;5382361;26;20314;-82
2024/04/23 05:58:41;;;;;;;27.67;14.20;;;;;;;;;;5373993;26;20234;-85
2024/04/23 06:01:07;;;;;;;30.67;14.40;;;;;;;;;;5381388;26;20058;-84
2024/04/23 06:03:33;;;;;;;33.30;15.23;;;;;;;;;;5372825;26;20292;-79
2024/04/23 06:05:59;;;;;;;33.00;15.83;;;;;;;;;;5376679;26;20289;-86
2024/04/23 06:08:26;;;;;;;28.57;14.07;;;;;;;;;;5375769;26;20242;-87
2024/04/23 06:10:52;;;;;;;30.13;14.13;;;;;;;;;;5375914;26;20000;-84
2024/04/23 06:13:18;;;;;;;26.43;13.37;;;;;;;;;;5377298;26;20744;-86
2024/04/23 06:15:44;;;;;;;27.50;13.93;;;;;;;;;;5377480;26;20058;-84
2024/04/23 06:18:10;;;;;;;28.50;14.10;;;;;;;;;;5374987;26;20004;-84
2024/04/23 06:20:35;;;;;;;26.40;11.87;;;;;;;;;;5368687;26;20576;-85
2024/04/23 06:23:02;;;;;;;27.57;12.93;;;;;;;;;;5350553;26;20001;-86
2024/04/23 06:25:27;;;;;;;25.70;12.83;;;;;;;;;;5379220;26;20000;-84
2024/04/23 06:27:53;;;;;;;22.80;11.80;;;;;;;;;;5382924;26;20317;-88
2024/04/23 06:30:19;;;;;;;26.30;12.47;;;;;;;;;;5344369;26;20048;-83
2024/04/23 06:32:47;;;;;;;23.47;11.67;;;;;;;;;;5377627;26;20032;-81
2024/04/23 06:35:13;;;;;;;25.23;11.70;;;;;;;;;;5387659;26;20000;-83
2024/04/23 06:37:40;;;;;;;24.43;12.13;;;;;;;;;;5385462;26;20000;-86
2024/04/23 06:40:08;;;;;;;22.67;12.63;;;;;;;;;;5386989;26;20000;-83
2024/04/23 06:42:35;;;;;;;22.43;11.37;;;;;;;;;;5372476;26;20011;-78
2024/04/23 06:45:01;;;;;;;24.60;11.70;;;;;;;;;;5373883;26;20246;-76
2024/04/23 06:47:27;;;;;;;25.17;12.77;;;;;;;;;;5342120;26;20238;-81
2024/04/23 06:49:53;;;;;;;23.17;10.73;;;;;;;;;;5337694;26;20046;-79
2024/04/23 06:52:19;;;;;;;25.27;11.80;;;;;;;;;;5364833;26;20015;-81
2024/04/23 06:54:45;;;;;;;23.20;11.57;;;;;;;;;;5344665;26;20004;-77
2024/04/23 06:57:10;;;;;;;26.67;11.97;;;;;;;;;;5373926;26;20332;-78
2024/04/23 06:59:36;;;;;;;23.93;12.33;;;;;;;;;;5373453;26;20027;-78
2024/04/23 07:02:05;;;;;;;25.20;12.57;;;;;;;;;;5363649;26;20547;-77
2024/04/23 07:04:31;;;;;;;23.57;11.60;;;;;;;;;;5377014;26;20003;-79
2024/04/23 07:06:57;;;;;;;22.43;11.10;;;;;;;;;;5376611;26;20054;-80
2024/04/23 07:09:23;;;;;;;22.73;10.07;;;;;;;;;;5375237;26;20015;-79
2024/04/23 07:11:49;;;;;;;16.63;8.93;;;;;;;;;;5365304;26;20074;-79
2024/04/23 07:14:15;;;;;;;21.30;10.93;;;;;;;;;;5367053;26;20000;-82
2024/04/23 07:16:44;;;;;;;23.50;10.83;;;;;;;;;;5339991;26;20353;-78
2024/04/23 07:19:11;;;;;;;19.63;9.77;;;;;;;;;;5374521;26;20154;-80
2024/04/23 07:21:36;;;;;;;16.57;9.50;;;;;;;;;;5375796;26;20000;-79
2024/04/23 07:24:02;;;;;;;16.20;8.57;;;;;;;;;;5368380;26;20011;-79
2024/04/23 07:26:31;;;;;;;15.17;8.30;;;;;;;;;;5375350;26;20112;-81
2024/04/23 07:28:57;;;;;;;16.10;8.47;;;;;;;;;;5372590;26;19996;-81
2024/04/23 07:31:23;;;;;;;15.03;7.87;;;;;;;;;;5376507;26;20008;-83
2024/04/23 07:33:51;;;;;;;14.67;7.00;;;;;;;;;;5376664;26;20000;-79
2024/04/23 07:36:17;;;;;;;12.33;7.47;;;;;;;;;;5376416;26;21869;-83
2024/04/23 07:38:43;;;;;;;13.43;6.50;;;;;;;;;;5339287;26;19996;-81
2024/04/23 07:41:14;;;;;;;14.23;7.50;;;;;;;;;;5369685;26;20506;-80
2024/04/23 07:43:43;;;;;;;16.20;7.13;;;;;;;;;;5373825;26;20000;-79
2024/04/23 07:46:09;;;;;;;12.17;6.93;;;;;;;;;;5339347;26;20008;-81
2024/04/23 07:48:35;;;;;;;12.10;6.90;;;;;;;;;;5375383;26;20000;-81
2024/04/23 07:51:01;;;;;;;10.43;6.53;;;;;;;;;;5364274;26;20004;-82
2024/04/23 07:53:27;;;;;;;13.47;6.60;;;;;;;;;;5343051;26;20008;-78
2024/04/23 07:55:53;;;;;;;15.07;6.30;;;;;;;;;;5332652;26;20004;-78
2024/04/23 07:58:20;;;;;;;8.63;5.17;;;;;;;;;;5338579;26;20015;-78
2024/04/23 08:00:46;;;;;;;8.23;4.73;;;;;;;;;;5342468;26;20004;-79
2024/04/23 08:03:12;;;;;;;9.93;5.40;;;;;;;;;;5373267;26;20003;-79
2024/04/23 08:05:41;;;;;;;8.37;5.10;;;;;;;;;;5376300;26;20005;-79
2024/04/23 08:08:07;;;;;;;8.17;4.57;;;;;;;;;;5334768;26;20004;-78
2024/04/23 08:10:33;;;;;;;7.43;4.57;;;;;;;;;;5334923;26;20074;-79
2024/04/23 08:12:59;;;;;;;7.03;4.60;;;;;;;;;;5373640;26;20008;-78
2024/04/23 08:15:25;;;;;;;8.50;4.83;;;;;;;;;;5362975;26;20070;-77
2024/04/23 08:17:52;;;;;;;8.30;4.50;;;;;;;;;;5371246;26;20028;-78
2024/04/23 08:20:18;;;;;;;7.87;4.17;;;;;;;;;;5374745;26;20015;-77
2024/04/23 08:22:44;;;;;;;7.37;4.37;;;;;;;;;;5377501;26;20008;-78
2024/04/23 08:25:13;;;;;;;10.87;4.70;;;;;;;;;;5374466;26;20687;-78
2024/04/23 08:27:40;;;;;;;5.93;3.83;;;;;;;;;;5377699;26;20428;-79
2024/04/23 08:30:07;;;;;;;5.90;3.33;;;;;;;;;;5401029;26;20424;-79
2024/04/23 08:32:33;;;;;;;7.20;3.13;;;;;;;;;;5370897;26;20340;-79
2024/04/23 08:34:59;;;;;;;8.53;4.00;;;;;;;;;;5361510;26;20000;-79
2024/04/23 08:37:25;;;;;;;5.97;2.97;;;;;;;;;;5373308;26;20004;-78
2024/04/23 08:39:51;;;;;;;8.23;3.67;;;;;;;;;;5369850;26;20439;-78
2024/04/23 08:42:19;;;;;;;4.80;2.90;;;;;;;;;;5373104;26;20012;-78
2024/04/23 08:44:51;;;;;;;10.13;4.33;;;;;;;;;;5371029;26;20008;-77
2024/04/23 08:47:17;;;;;;;4.95;3.25;;;;;;;;;;5373838;26;20054;-78
2024/04/23 08:49:45;;;;;;;5.13;3.33;;;;;;;;;;5372121;26;20008;-79
2024/04/23 08:52:12;;;;;;;6.80;3.90;;;;;;;;;;5373010;26;20278;-77
2024/04/23 08:54:39;;;;;;;5.07;2.67;;;;;;;;;;5377295;26;20005;-79
2024/04/23 08:57:05;;;;;;;3.60;1.73;;;;;;;;;;5375285;26;20232;-78
2024/04/23 08:59:32;;;;;;;3.60;2.40;;;;;;;;;;5366165;26;20595;-77
2024/04/23 09:01:59;;;;;;;3.07;1.70;;;;;;;;;;5375813;26;20073;-77
2024/04/23 09:04:25;;;;;;;4.43;1.57;;;;;;;;;;5378174;26;20004;-76
2024/04/23 09:06:51;;;;;;;2.90;2.10;;;;;;;;;;5374105;26;20040;-78
2024/04/23 09:09:21;;;;;;;2.83;1.73;;;;;;;;;;5373024;26;20001;-79
2024/04/23 09:11:48;;;;;;;5.93;2.50;;;;;;;;;;5376223;26;20014;-76
2024/04/23 09:14:15;;;;;;;2.60;1.53;;;;;;;;;;5362519;26;20442;-78
2024/04/23 09:16:40;;;;;;;4.83;1.93;;;;;;;;;;5373081;26;20012;-77
2024/04/23 09:19:08;;;;;;;3.03;1.73;;;;;;;;;;5375525;26;20836;-78
2024/04/23 09:21:34;;;;;;;4.07;1.90;;;;;;;;;;5334920;26;20376;-78
2024/04/23 09:24:03;;;;;;;3.77;1.70;;;;;;;;;;5374845;26;20016;-78
2024/04/23 09:26:30;;;;;;;5.83;1.90;;;;;;;;;;5364226;26;20063;-77
2024/04/23 09:28:58;;;;;;;1.87;1.30;;;;;;;;;;5344636;26;20423;-78
2024/04/23 09:31:24;;;;;;;3.43;1.73;;;;;;;;;;5376707;26;19996;-78
2024/04/23 09:33:57;;;;;;;3.83;1.30;;;;;;;;;;5373954;26;20000;-78
2024/04/23 09:36:24;;;;;;;4.00;1.67;;;;;;;;;;5344166;26;20004;-78
2024/04/23 09:38:54;;;;;;;2.47;1.43;;;;;;;;;;5372417;26;20012;-78
2024/04/23 09:41:20;;;;;;;2.20;1.30;;;;;;;;;;5373256;26;20000;-78
2024/04/23 09:44:16;;;;;;;3.60;1.53;;;;;;;;;;5365229;26;20024;-77
2024/04/23 09:46:42;;;;;;;3.40;2.30;;;;;;;;;;5373003;26;20015;-76
2024/04/23 09:49:08;;;;;;;4.10;2.40;;;;;;;;;;5374344;26;20421;-78
2024/04/23 09:51:34;;;;;;;3.93;2.40;;;;;;;;;;5335269;26;20003;-78
2024/04/23 09:54:01;;;;;;;2.50;1.80;;;;;;;;;;5363845;26;20011;-78
2024/04/23 09:56:27;;;;;;;2.83;1.53;;;;;;;;;;5363428;26;20327;-77
2024/04/23 09:58:53;;;;;;;2.77;2.00;;;;;;;;;;5375337;26;20008;-78
2024/04/23 10:01:21;;;;;;;4.97;2.00;;;;;;;;;;5335185;26;20000;-78
2024/04/23 10:03:49;;;;;;;3.27;1.83;;;;;;;;;;5372515;26;20004;-78
2024/04/23 10:06:26;;;;;;;4.17;2.20;;;;;;;;;;5372248;26;20590;-76
2024/04/23 10:08:52;;;;;;;3.37;2.03;;;;;;;;;;5372719;26;20609;-77
2024/04/23 10:11:24;;;;;;;4.20;2.30;;;;;;;;;;5335721;26;20022;-78
2024/04/23 10:13:55;;;;;;;3.17;2.13;;;;;;;;;;5344163;26;20007;-78
2024/04/23 10:16:30;;;;;;;3.30;2.03;;;;;;;;;;5374590;26;22426;-78
2024/04/23 10:19:00;;;;;;;6.03;2.37;;;;;;;;;;5374806;26;20011;-78
2024/04/23 10:21:29;;;;;;;3.60;2.10;;;;;;;;;;5362609;26;19997;-76
2024/04/23 10:23:58;;;;;;;3.07;1.97;;;;;;;;;;5375665;26;20012;-78
2024/04/23 10:26:25;;;;;;;4.43;2.53;;;;;;;;;;5366533;26;19993;-79
2024/04/23 10:28:52;;;;;;;2.27;1.63;;;;;;;;;;5375917;26;20329;-78
2024/04/23 10:31:19;;;;;;;2.43;2.07;;;;;;;;;;5375667;26;20077;-79
2024/04/23 10:33:50;;;;;;;7.00;2.27;;;;;;;;;;5364545;26;20420;-75
2024/04/23 10:36:17;;;;;;;3.03;1.60;;;;;;;;;;5402640;26;20085;-77
2024/04/23 10:38:44;;;;;;;4.73;1.57;;;;;;;;;;5361059;26;20004;-77
2024/04/23 10:41:13;;;;;;;2.63;1.67;;;;;;;;;;5343271;26;20000;-77
2024/04/23 10:43:40;;;;;;;2.70;1.83;;;;;;;;;;5373963;26;20010;-78
2024/04/23 10:46:06;;;;;;;2.57;1.77;;;;;;;;;;5371999;26;20015;-78
2024/04/23 10:48:37;;;;;;;2.47;1.60;;;;;;;;;;5375271;26;20067;-79
2024/04/23 10:51:04;;;;;;;5.63;1.80;;;;;;;;;;5374254;26;20412;-78
2024/04/23 10:53:34;;;;;;;3.40;1.87;;;;;;;;;;5372216;26;19996;-77
2024/04/23 10:56:00;;;;;;;3.83;2.27;;;;;;;;;;5375336;26;20575;-76
2024/04/23 10:58:26;;;;;;;3.20;1.57;;;;;;;;;;5343272;26;20014;-78
2024/04/23 11:01:02;;;;;;;2.53;1.60;;;;;;;;;;5335645;26;20421;-77
2024/04/23 11:03:34;;;;;;;2.67;1.57;;;;;;;;;;5364790;26;20444;-78
2024/04/23 11:06:00;;;;;;;2.75;1.83;;;;;;;;;;5374380;26;20008;-78
2024/04/23 11:08:26;;;;;;;3.37;1.90;;;;;;;;;;5359742;26;20324;-78
2024/04/23 11:10:52;;;;;;;3.83;1.97;;;;;;;;;;5359885;26;20000;-77
2024/04/23 11:13:28;;;;;;;3.17;2.23;;;;;;;;;;5370470;26;20011;-77
2024/04/23 11:15:55;;;;;;;4.90;2.33;;;;;;;;;;5360928;26;20024;-77
2024/04/23 11:18:23;;;;;;;2.87;1.83;;;;;;;;;;5373253;26;20065;-78
2024/04/23 11:20:50;;;;;;;3.80;2.27;;;;;;;;;;5371817;26;20051;-79
2024/04/23 11:23:20;;;;;;;3.60;1.77;;;;;;;;;;5373382;26;20000;-79
2024/04/23 11:25:49;;;;;;;2.80;1.90;;;;;;;;;;5361679;26;20004;-78
2024/04/23 11:28:16;;;;;;;2.17;1.57;;;;;;;;;;5331339;26;20000;-78
2024/04/23 11:30:42;;;;;;;2.77;1.77;;;;;;;;;;5373403;26;20007;-78
2024/04/23 11:33:10;;;;;;;3.13;1.90;;;;;;;;;;5364056;26;20007;-78
2024/04/23 11:35:38;;;;;;;3.03;2.27;;;;;;;;;;5372332;26;20011;-76
2024/04/23 11:38:04;;;;;;;5.10;3.10;;;;;;;;;;5373106;26;20000;-78
2024/04/23 11:40:30;;;;;;;5.73;2.70;;;;;;;;;;5374495;26;20067;-79
2024/04/23 11:42:59;;;;;;;4.60;2.50;;;;;;;;;;5340666;26;19997;-78
2024/04/23 11:45:25;;;;;;;3.57;2.33;;;;;;;;;;5360363;26;20011;-76
2024/04/23 11:47:53;;;;;;;3.80;2.30;;;;;;;;;;5372263;26;19997;-77
2024/04/23 11:50:20;;;;;;;2.83;2.00;;;;;;;;;;5372861;26;20019;-77
2024/04/23 11:52:46;;;;;;;2.73;2.10;;;;;;;;;;5342002;26;20035;-77
2024/04/23 11:55:15;;;;;;;2.70;2.00;;;;;;;;;;5360471;26;20336;-77
2024/04/23 11:57:41;;;;;;;4.47;2.30;;;;;;;;;;5375182;26;19996;-77
2024/04/23 12:00:10;;;;;;;3.10;2.13;;;;;;;;;;5373421;26;20530;-78
2024/04/23 12:02:36;;;;;;;3.50;2.20;;;;;;;;;;5371915;26;20000;-78
2024/04/23 12:05:03;;;;;;;5.87;2.23;;;;;;;;;;5372018;26;20001;-78
2024/04/23 12:07:30;;;;;;;5.27;2.47;;;;;;;;;;5370401;26;20004;-78
2024/04/23 12:10:03;;;;;;;2.60;1.63;;;;;;;;;;5399928;26;20018;-78
2024/04/23 12:12:35;;;;;;;3.40;2.27;;;;;;;;;;5371678;26;20012;-76
2024/04/23 12:15:01;;;;;;;3.10;2.17;;;;;;;;;;5372328;26;20018;-78
2024/04/23 12:17:27;;;;;;;2.77;1.77;;;;;;;;;;5372326;26;20012;-77
2024/04/23 12:19:55;;;;;;;3.70;3.10;;;;;;;;;;5371282;26;20000;-78
2024/04/23 12:22:21;;;;;;;3.30;2.10;;;;;;;;;;5360717;26;21000;-78
2024/04/23 12:24:47;;;;;;;3.23;2.10;;;;;;;;;;5357731;26;20019;-78
2024/04/23 12:27:13;;;;;;;3.50;2.00;;;;;;;;;;5374288;26;20007;-79
2024/04/23 12:29:39;;;;;;;2.90;2.27;;;;;;;;;;5376148;26;20000;-77
2024/04/23 12:32:06;;;;;;;3.00;1.90;;;;;;;;;;5379183;26;20012;-78
2024/04/23 12:34:32;;;;;;;2.73;1.60;;;;;;;;;;5363779;26;20111;-78
2024/04/23 12:36:58;;;;;;;3.47;1.93;;;;;;;;;;5376518;26;20000;-77
2024/04/23 12:39:24;;;;;;;2.93;1.90;;;;;;;;;;5375278;26;20012;-79
2024/04/23 12:41:50;;;;;;;3.97;1.50;;;;;;;;;;5335539;26;20070;-79
2024/04/23 12:44:22;;;;;;;3.87;1.80;;;;;;;;;;5374811;26;20016;-77
2024/04/23 12:46:48;;;;;;;1.75;1.27;;;;;;;;;;5372546;26;20016;-78
2024/04/23 12:49:14;;;;;;;4.00;2.20;;;;;;;;;;5374051;26;20054;-78
2024/04/23 12:51:40;;;;;;;2.27;1.37;;;;;;;;;;5374375;26;20054;-78
2024/04/23 12:54:08;;;;;;;3.63;1.63;;;;;;;;;;5365858;26;20020;-76
2024/04/23 12:56:35;;;;;;;2.57;1.40;;;;;;;;;;5364368;26;20933;-78
2024/04/23 12:59:05;;;;;;;2.90;1.50;;;;;;;;;;5374430;26;20011;-77
2024/04/23 13:01:31;;;;;;;1.87;1.47;;;;;;;;;;5346469;26;20019;-77
2024/04/23 13:03:57;;;;;;;3.67;1.50;;;;;;;;;;5375119;26;20004;-78
2024/04/23 13:06:23;;;;;;;2.07;1.23;;;;;;;;;;5375344;26;20424;-77
2024/04/23 13:08:49;;;;;;;3.28;1.33;;;;;;;;;;5375666;26;20061;-76
2024/04/23 13:11:15;;;;;;;3.58;1.92;;;;;;;;;;5373545;26;20020;-79
2024/04/23 13:13:41;;;;;;;1.98;1.33;;;;;;;;;;5361914;26;20720;-78
2024/04/23 13:16:07;;;;;;;3.13;1.52;;;;;;;;;;5372541;26;20027;-78
2024/04/23 13:18:34;;;;;;;2.25;2.05;;;;;;;;;;5372145;26;20096;-77
2024/04/23 13:21:02;;;;;;;3.50;1.88;;;;;;;;;;5331808;26;20047;-78
2024/04/23 13:23:28;;;;;;;2.00;1.50;;;;;;;;;;5364257;26;20055;-78
2024/04/23 13:25:55;;;;;;;3.45;1.35;;;;;;;;;;5363186;26;20387;-76
2024/04/23 13:28:23;;;;;;;2.40;1.52;;;;;;;;;;5374239;26;20012;-79
2024/04/23 13:30:56;;;;;;;2.65;1.27;;;;;;;;;;5361223;26;20004;-78
2024/04/23 13:33:24;;;;;;;3.30;1.10;;;;;;;;;;5371196;26;20011;-78
2024/04/23 13:35:50;;;;;;;2.50;1.58;;;;;;;;;;5372552;26;20008;-78
2024/04/23 13:38:16;;;;;;;1.73;1.27;;;;;;;;;;5372030;26;20004;-78
2024/04/23 13:40:42;;;;;;;2.33;1.38;;;;;;;;;;5358810;26;20007;-79
2024/04/23 13:43:08;;;;;;;1.60;1.20;;;;;;;;;;5372607;26;20019;-77
2024/04/23 13:45:35;;;;;;;2.63;1.58;;;;;;;;;;5375303;26;20011;-79
2024/04/23 13:48:01;;;;;;;5.05;1.63;;;;;;;;;;5342921;26;19997;-77
2024/04/23 13:50:27;;;;;;;2.83;1.85;;;;;;;;;;5373540;26;20099;-77
2024/04/23 13:52:53;;;;;;;2.90;1.90;;;;;;;;;;5374354;26;19996;-78
2024/04/23 13:55:20;;;;;;;2.20;1.65;;;;;;;;;;5372565;26;20000;-78
2024/04/23 13:57:46;;;;;;;2.63;1.92;;;;;;;;;;5372572;26;21133;-78
2024/04/23 14:00:13;;;;;;;2.33;1.85;;;;;;;;;;5362724;26;20008;-76
2024/04/23 14:02:39;;;;;;;3.30;2.10;;;;;;;;;;5341117;26;20007;-77
2024/04/23 14:05:07;;;;;;;4.20;1.90;;;;;;;;;;5373231;26;20376;-78
2024/04/23 14:07:36;;;;;;;2.33;2.00;;;;;;;;;;5372088;26;20000;-78
2024/04/23 14:10:02;;;;;;;4.57;1.73;;;;;;;;;;5343485;26;20077;-77
2024/04/23 14:12:28;;;;;;;2.07;1.67;;;;;;;;;;5372026;26;20012;-77
2024/04/23 14:14:56;;;;;;;3.67;1.83;;;;;;;;;;5372435;26;20011;-77
2024/04/23 14:17:22;;;;;;;2.80;1.70;;;;;;;;;;5358400;26;20007;-77
2024/04/23 14:19:48;;;;;;;3.50;2.13;;;;;;;;;;5374059;26;20007;-78
2024/04/23 14:22:16;;;;;;;4.47;1.90;;;;;;;;;;5364330;26;20050;-78
2024/04/23 14:24:42;;;;;;;5.43;3.10;;;;;;;;;;5373083;26;20035;-78
2024/04/23 14:27:09;;;;;;;3.10;2.03;;;;;;;;;;5370024;26;20008;-77
2024/04/23 14:29:35;;;;;;;2.43;1.80;;;;;;;;;;5403349;26;20032;-77
2024/04/23 14:32:04;;;;;;;2.83;2.00;;;;;;;;;;5371560;26;20462;-77
2024/04/23 14:34:32;;;;;;;3.13;2.50;;;;;;;;;;5372194;26;20000;-77
2024/04/23 14:37:00;;;;;;;4.93;3.10;;;;;;;;;;5370764;26;20000;-78
2024/04/23 14:39:26;;;;;;;3.37;2.40;;;;;;;;;;5371996;26;20043;-78
2024/04/23 14:41:55;;;;;;;3.07;2.47;;;;;;;;;;5358100;26;20015;-78
2024/04/23 14:44:21;;;;;;;2.90;2.20;;;;;;;;;;5370617;26;20001;-78